Portada
METAR-TAF:

METAR-TAF

Aeropuertos :

Zaragoza, España

Aeropuerto de Zaragoza

latitud: 41-40N, longitud: 001-01W, altitud: 263 m

Observación

El informe se hizo hace 25 minutos, a las 11:00 UTC
Viento 7 kt del este
Temperatura 12°C
Humedad 67%
Presión 1018 hPa
Visibilidad: 8000 m
Escasas nubes a una altura de 5000 ft

METAR: LEZG 231100Z 09007KT 8000 FEW050 12/06 Q1018

Hora: 12:25 (11:25 UTC)

Pronóstico

El informe se hizo hace 6 horas y 25 minutos, a las 05:00 UTC
Pronóstico válido del 23 a las 06 UTC al 24 a las 06 UTC
Viento 8 kt del este
Visibilidad 10 km o más
Escasas nubes a una altura de 3000 ft
Temporalmente
del 23 a las 06 UTC al 23 a las 07 UTC
Visibilidad: 6000 m

TAF: LEZG 230500Z 2306/2406 09008KT 9999 FEW030 TX17/2314Z TN05/2306Z TEMPO 2306/2307 6000

Observaciones y pronósticos meteorológicos de más de 4000 aeropuertos (mensajes METAR y TAF).

Los puntos amarillos y rojos representan las estaciones disponibles.

Ponga el ratón en el punto deseado para ver el nombre de la estación.

Haga clic para ver las observaciones y los pronósticos meteorológicos.

Para cambiar el mapa : haga clic en los botones verdes con una cruz de color negro para hacer un zoom, en el botón verde con un guión para alejar o en las flechas verdes para mapas adyacentes.


METAR-TAF: